sensor_id;sensor_type;location;lat;lon;timestamp;P1;durP1;ratioP1;P2;durP2;ratioP2
52210;SDS011;38179;52.756;6.906;2024-02-21T00:02:11;35.33;;;22.58;;
52210;SDS011;38179;52.756;6.906;2024-02-21T00:04:36;31.95;;;21.77;;
52210;SDS011;38179;52.756;6.906;2024-02-21T00:07:03;33.58;;;20.75;;
52210;SDS011;38179;52.756;6.906;2024-02-21T00:09:29;33.65;;;20.42;;
52210;SDS011;38179;52.756;6.906;2024-02-21T00:11:55;35.78;;;20.77;;
52210;SDS011;38179;52.756;6.906;2024-02-21T00:14:21;29.23;;;20.60;;
52210;SDS011;38179;52.756;6.906;2024-02-21T00:16:47;40.17;;;21.38;;
52210;SDS011;38179;52.756;6.906;2024-02-21T00:19:12;37.10;;;20.70;;
52210;SDS011;38179;52.756;6.906;2024-02-21T00:21:39;31.73;;;19.83;;
52210;SDS011;38179;52.756;6.906;2024-02-21T00:24:05;30.10;;;19.77;;
52210;SDS011;38179;52.756;6.906;2024-02-21T00:26:31;35.10;;;19.23;;
52210;SDS011;38179;52.756;6.906;2024-02-21T00:28:57;33.83;;;19.52;;
52210;SDS011;38179;52.756;6.906;2024-02-21T00:31:22;31.70;;;20.38;;
52210;SDS011;38179;52.756;6.906;2024-02-21T00:33:48;29.48;;;17.83;;
52210;SDS011;38179;52.756;6.906;2024-02-21T00:36:14;32.33;;;19.02;;
52210;SDS011;38179;52.756;6.906;2024-02-21T00:38:40;31.00;;;20.27;;
52210;SDS011;38179;52.756;6.906;2024-02-21T00:41:06;28.45;;;19.80;;
52210;SDS011;38179;52.756;6.906;2024-02-21T00:43:31;31.35;;;19.00;;
52210;SDS011;38179;52.756;6.906;2024-02-21T00:45:57;29.60;;;18.52;;
52210;SDS011;38179;52.756;6.906;2024-02-21T00:48:23;28.73;;;18.73;;
52210;SDS011;38179;52.756;6.906;2024-02-21T00:50:48;32.95;;;19.42;;
52210;SDS011;38179;52.756;6.906;2024-02-21T00:53:14;30.95;;;18.77;;
52210;SDS011;38179;52.756;6.906;2024-02-21T00:55:40;27.05;;;18.55;;
52210;SDS011;38179;52.756;6.906;2024-02-21T00:58:06;28.95;;;19.00;;
52210;SDS011;38179;52.756;6.906;2024-02-21T01:00:31;27.15;;;18.45;;
52210;SDS011;38179;52.756;6.906;2024-02-21T01:02:57;27.58;;;18.63;;
52210;SDS011;38179;52.756;6.906;2024-02-21T01:05:22;27.92;;;18.77;;
52210;SDS011;38179;52.756;6.906;2024-02-21T01:07:48;31.77;;;18.92;;
52210;SDS011;38179;52.756;6.906;2024-02-21T01:10:14;26.35;;;18.35;;
52210;SDS011;38179;52.756;6.906;2024-02-21T01:12:39;30.73;;;17.80;;
52210;SDS011;38179;52.756;6.906;2024-02-21T01:15:05;25.33;;;18.08;;
52210;SDS011;38179;52.756;6.906;2024-02-21T01:17:31;31.27;;;18.33;;
52210;SDS011;38179;52.756;6.906;2024-02-21T01:19:57;31.23;;;18.27;;
52210;SDS011;38179;52.756;6.906;2024-02-21T01:22:23;26.63;;;16.90;;
52210;SDS011;38179;52.756;6.906;2024-02-21T01:24:48;28.27;;;18.10;;
52210;SDS011;38179;52.756;6.906;2024-02-21T01:27:14;24.45;;;16.85;;
52210;SDS011;38179;52.756;6.906;2024-02-21T01:29:39;26.15;;;16.52;;
52210;SDS011;38179;52.756;6.906;2024-02-21T01:32:05;22.98;;;16.98;;
52210;SDS011;38179;52.756;6.906;2024-02-21T01:34:31;26.08;;;17.27;;
52210;SDS011;38179;52.756;6.906;2024-02-21T01:36:57;31.38;;;16.52;;
52210;SDS011;38179;52.756;6.906;2024-02-21T01:39:22;24.05;;;17.90;;
52210;SDS011;38179;52.756;6.906;2024-02-21T01:41:48;30.10;;;17.65;;
52210;SDS011;38179;52.756;6.906;2024-02-21T01:44:14;25.67;;;17.60;;
52210;SDS011;38179;52.756;6.906;2024-02-21T01:46:39;28.33;;;17.65;;
52210;SDS011;38179;52.756;6.906;2024-02-21T01:49:05;23.00;;;16.73;;
52210;SDS011;38179;52.756;6.906;2024-02-21T01:51:31;22.67;;;17.23;;
52210;SDS011;38179;52.756;6.906;2024-02-21T01:53:57;22.08;;;16.02;;
52210;SDS011;38179;52.756;6.906;2024-02-21T01:56:23;28.98;;;17.35;;
52210;SDS011;38179;52.756;6.906;2024-02-21T01:58:49;26.13;;;18.13;;
52210;SDS011;38179;52.756;6.906;2024-02-21T02:01:16;25.00;;;17.23;;
52210;SDS011;38179;52.756;6.906;2024-02-21T02:03:42;25.35;;;16.83;;
52210;SDS011;38179;52.756;6.906;2024-02-21T02:06:10;28.30;;;18.10;;
52210;SDS011;38179;52.756;6.906;2024-02-21T02:08:36;23.05;;;16.88;;
52210;SDS011;38179;52.756;6.906;2024-02-21T02:11:02;22.63;;;16.05;;
52210;SDS011;38179;52.756;6.906;2024-02-21T02:13:28;21.35;;;16.02;;
52210;SDS011;38179;52.756;6.906;2024-02-21T02:15:54;29.38;;;17.33;;
52210;SDS011;38179;52.756;6.906;2024-02-21T02:18:20;21.92;;;16.02;;
52210;SDS011;38179;52.756;6.906;2024-02-21T02:20:46;29.95;;;17.35;;
52210;SDS011;38179;52.756;6.906;2024-02-21T02:25:54;22.98;;;16.20;;
52210;SDS011;38179;52.756;6.906;2024-02-21T02:28:21;24.50;;;16.00;;
52210;SDS011;38179;52.756;6.906;2024-02-21T02:30:47;23.83;;;15.80;;
52210;SDS011;38179;52.756;6.906;2024-02-21T02:33:13;26.35;;;16.52;;
52210;SDS011;38179;52.756;6.906;2024-02-21T02:35:39;30.63;;;16.50;;
52210;SDS011;38179;52.756;6.906;2024-02-21T02:38:05;24.45;;;16.20;;
52210;SDS011;38179;52.756;6.906;2024-02-21T02:40:31;27.02;;;16.88;;
52210;SDS011;38179;52.756;6.906;2024-02-21T02:42:58;27.80;;;16.98;;
52210;SDS011;38179;52.756;6.906;2024-02-21T02:45:24;25.55;;;16.15;;
52210;SDS011;38179;52.756;6.906;2024-02-21T02:47:51;28.33;;;17.23;;
52210;SDS011;38179;52.756;6.906;2024-02-21T02:50:19;29.25;;;16.55;;
52210;SDS011;38179;52.756;6.906;2024-02-21T02:52:45;23.98;;;16.10;;
52210;SDS011;38179;52.756;6.906;2024-02-21T02:55:11;30.05;;;17.10;;
52210;SDS011;38179;52.756;6.906;2024-02-21T02:57:36;28.45;;;16.05;;
52210;SDS011;38179;52.756;6.906;2024-02-21T03:00:03;27.85;;;15.65;;
52210;SDS011;38179;52.756;6.906;2024-02-21T03:02:29;33.85;;;16.95;;
52210;SDS011;38179;52.756;6.906;2024-02-21T03:04:56;29.40;;;16.08;;
52210;SDS011;38179;52.756;6.906;2024-02-21T03:07:24;30.30;;;16.67;;
52210;SDS011;38179;52.756;6.906;2024-02-21T03:09:50;33.03;;;17.30;;
52210;SDS011;38179;52.756;6.906;2024-02-21T03:12:17;27.38;;;17.70;;
52210;SDS011;38179;52.756;6.906;2024-02-21T03:14:52;31.70;;;17.65;;
52210;SDS011;38179;52.756;6.906;2024-02-21T03:17:18;30.02;;;17.30;;
52210;SDS011;38179;52.756;6.906;2024-02-21T03:19:44;28.38;;;16.88;;
52210;SDS011;38179;52.756;6.906;2024-02-21T03:22:13;31.52;;;17.00;;
52210;SDS011;38179;52.756;6.906;2024-02-21T03:24:38;31.25;;;17.98;;
52210;SDS011;38179;52.756;6.906;2024-02-21T03:27:04;29.27;;;17.98;;
52210;SDS011;38179;52.756;6.906;2024-02-21T03:29:29;35.25;;;17.83;;
52210;SDS011;38179;52.756;6.906;2024-02-21T03:31:55;28.00;;;17.10;;
52210;SDS011;38179;52.756;6.906;2024-02-21T03:34:21;30.83;;;18.63;;
52210;SDS011;38179;52.756;6.906;2024-02-21T03:36:46;32.42;;;17.67;;
52210;SDS011;38179;52.756;6.906;2024-02-21T03:39:12;29.77;;;17.35;;
52210;SDS011;38179;52.756;6.906;2024-02-21T03:41:38;28.23;;;17.83;;
52210;SDS011;38179;52.756;6.906;2024-02-21T03:44:03;30.00;;;18.55;;
52210;SDS011;38179;52.756;6.906;2024-02-21T03:46:30;29.83;;;17.55;;
52210;SDS011;38179;52.756;6.906;2024-02-21T03:48:56;27.08;;;16.88;;
52210;SDS011;38179;52.756;6.906;2024-02-21T03:51:22;32.47;;;18.10;;
52210;SDS011;38179;52.756;6.906;2024-02-21T03:53:47;30.42;;;16.65;;
52210;SDS011;38179;52.756;6.906;2024-02-21T03:56:13;30.88;;;16.67;;
52210;SDS011;38179;52.756;6.906;2024-02-21T03:58:39;36.60;;;17.45;;
52210;SDS011;38179;52.756;6.906;2024-02-21T04:01:04;29.15;;;16.40;;
52210;SDS011;38179;52.756;6.906;2024-02-21T04:03:30;29.52;;;17.20;;
52210;SDS011;38179;52.756;6.906;2024-02-21T04:05:56;31.95;;;17.38;;
52210;SDS011;38179;52.756;6.906;2024-02-21T04:08:22;31.73;;;17.25;;
52210;SDS011;38179;52.756;6.906;2024-02-21T04:10:48;35.35;;;17.80;;
52210;SDS011;38179;52.756;6.906;2024-02-21T04:13:14;27.88;;;16.15;;
52210;SDS011;38179;52.756;6.906;2024-02-21T04:15:40;29.20;;;17.17;;
52210;SDS011;38179;52.756;6.906;2024-02-21T04:18:05;29.02;;;16.85;;
52210;SDS011;38179;52.756;6.906;2024-02-21T04:20:31;26.55;;;16.50;;
52210;SDS011;38179;52.756;6.906;2024-02-21T04:22:57;29.92;;;17.05;;
52210;SDS011;38179;52.756;6.906;2024-02-21T04:25:23;33.65;;;17.05;;
52210;SDS011;38179;52.756;6.906;2024-02-21T04:27:49;31.58;;;15.93;;
52210;SDS011;38179;52.756;6.906;2024-02-21T04:30:15;30.90;;;17.30;;
52210;SDS011;38179;52.756;6.906;2024-02-21T04:32:41;27.33;;;16.40;;
52210;SDS011;38179;52.756;6.906;2024-02-21T04:35:07;29.83;;;17.25;;
52210;SDS011;38179;52.756;6.906;2024-02-21T04:37:33;33.13;;;17.15;;
52210;SDS011;38179;52.756;6.906;2024-02-21T04:39:58;31.35;;;16.60;;
52210;SDS011;38179;52.756;6.906;2024-02-21T04:42:24;29.38;;;17.75;;
52210;SDS011;38179;52.756;6.906;2024-02-21T04:44:50;32.17;;;16.40;;
52210;SDS011;38179;52.756;6.906;2024-02-21T04:47:16;27.48;;;16.77;;
52210;SDS011;38179;52.756;6.906;2024-02-21T04:49:41;34.90;;;17.60;;
52210;SDS011;38179;52.756;6.906;2024-02-21T04:52:07;30.48;;;16.65;;
52210;SDS011;38179;52.756;6.906;2024-02-21T04:54:33;32.40;;;18.02;;
52210;SDS011;38179;52.756;6.906;2024-02-21T04:57:00;32.58;;;17.45;;
52210;SDS011;38179;52.756;6.906;2024-02-21T04:59:26;27.65;;;16.65;;
52210;SDS011;38179;52.756;6.906;2024-02-21T05:01:52;30.00;;;16.15;;
52210;SDS011;38179;52.756;6.906;2024-02-21T05:04:17;27.58;;;15.77;;
52210;SDS011;38179;52.756;6.906;2024-02-21T05:06:43;30.95;;;17.95;;
52210;SDS011;38179;52.756;6.906;2024-02-21T05:09:09;31.52;;;16.98;;
52210;SDS011;38179;52.756;6.906;2024-02-21T05:11:35;30.20;;;15.82;;
52210;SDS011;38179;52.756;6.906;2024-02-21T05:14:03;28.98;;;15.93;;
52210;SDS011;38179;52.756;6.906;2024-02-21T05:16:29;28.75;;;16.42;;
52210;SDS011;38179;52.756;6.906;2024-02-21T05:18:55;29.73;;;16.60;;
52210;SDS011;38179;52.756;6.906;2024-02-21T05:21:25;27.42;;;16.65;;
52210;SDS011;38179;52.756;6.906;2024-02-21T05:23:51;39.90;;;17.75;;
52210;SDS011;38179;52.756;6.906;2024-02-21T05:26:23;34.10;;;17.55;;
52210;SDS011;38179;52.756;6.906;2024-02-21T05:28:49;31.45;;;16.90;;
52210;SDS011;38179;52.756;6.906;2024-02-21T05:31:15;27.77;;;16.02;;
52210;SDS011;38179;52.756;6.906;2024-02-21T05:33:43;29.83;;;16.60;;
52210;SDS011;38179;52.756;6.906;2024-02-21T05:36:09;30.70;;;17.60;;
52210;SDS011;38179;52.756;6.906;2024-02-21T05:38:35;33.50;;;16.45;;
52210;SDS011;38179;52.756;6.906;2024-02-21T05:41:01;33.58;;;16.67;;
52210;SDS011;38179;52.756;6.906;2024-02-21T05:43:27;30.10;;;17.63;;
52210;SDS011;38179;52.756;6.906;2024-02-21T05:45:52;28.13;;;17.63;;
52210;SDS011;38179;52.756;6.906;2024-02-21T05:48:18;28.50;;;16.98;;
52210;SDS011;38179;52.756;6.906;2024-02-21T05:50:44;28.48;;;17.52;;
52210;SDS011;38179;52.756;6.906;2024-02-21T05:53:10;34.97;;;16.92;;
52210;SDS011;38179;52.756;6.906;2024-02-21T05:55:36;29.00;;;17.48;;
52210;SDS011;38179;52.756;6.906;2024-02-21T05:58:02;27.70;;;17.63;;
52210;SDS011;38179;52.756;6.906;2024-02-21T06:00:28;28.38;;;17.73;;
52210;SDS011;38179;52.756;6.906;2024-02-21T06:02:54;31.92;;;18.45;;
52210;SDS011;38179;52.756;6.906;2024-02-21T06:05:20;27.77;;;18.02;;
52210;SDS011;38179;52.756;6.906;2024-02-21T06:07:46;31.58;;;18.42;;
52210;SDS011;38179;52.756;6.906;2024-02-21T06:10:11;32.10;;;17.92;;
52210;SDS011;38179;52.756;6.906;2024-02-21T06:12:37;37.90;;;18.48;;
52210;SDS011;38179;52.756;6.906;2024-02-21T06:15:03;30.73;;;18.63;;
52210;SDS011;38179;52.756;6.906;2024-02-21T06:17:29;35.45;;;19.35;;
52210;SDS011;38179;52.756;6.906;2024-02-21T06:19:55;35.10;;;19.65;;
52210;SDS011;38179;52.756;6.906;2024-02-21T06:22:20;31.42;;;20.23;;
52210;SDS011;38179;52.756;6.906;2024-02-21T06:24:46;37.63;;;19.15;;
52210;SDS011;38179;52.756;6.906;2024-02-21T06:27:12;35.75;;;20.73;;
52210;SDS011;38179;52.756;6.906;2024-02-21T06:29:39;40.60;;;21.33;;
52210;SDS011;38179;52.756;6.906;2024-02-21T06:32:05;37.10;;;20.75;;
52210;SDS011;38179;52.756;6.906;2024-02-21T06:34:31;47.10;;;22.15;;
52210;SDS011;38179;52.756;6.906;2024-02-21T06:36:57;41.47;;;19.48;;
52210;SDS011;38179;52.756;6.906;2024-02-21T06:39:22;44.28;;;21.38;;
52210;SDS011;38179;52.756;6.906;2024-02-21T06:41:48;33.22;;;20.60;;
52210;SDS011;38179;52.756;6.906;2024-02-21T06:44:15;33.97;;;20.67;;
52210;SDS011;38179;52.756;6.906;2024-02-21T06:46:42;36.08;;;19.88;;
52210;SDS011;38179;52.756;6.906;2024-02-21T06:49:08;39.00;;;19.00;;
52210;SDS011;38179;52.756;6.906;2024-02-21T06:51:33;36.38;;;19.75;;
52210;SDS011;38179;52.756;6.906;2024-02-21T06:53:59;30.20;;;20.17;;
52210;SDS011;38179;52.756;6.906;2024-02-21T06:56:25;32.13;;;18.52;;
52210;SDS011;38179;52.756;6.906;2024-02-21T06:58:54;29.55;;;19.33;;
52210;SDS011;38179;52.756;6.906;2024-02-21T07:01:21;34.67;;;19.65;;
52210;SDS011;38179;52.756;6.906;2024-02-21T07:03:46;34.45;;;19.20;;
52210;SDS011;38179;52.756;6.906;2024-02-21T07:06:12;39.25;;;20.40;;
52210;SDS011;38179;52.756;6.906;2024-02-21T07:08:38;33.55;;;19.98;;
52210;SDS011;38179;52.756;6.906;2024-02-21T07:11:04;26.88;;;19.65;;
52210;SDS011;38179;52.756;6.906;2024-02-21T07:13:30;29.25;;;19.77;;
52210;SDS011;38179;52.756;6.906;2024-02-21T07:15:57;30.65;;;20.05;;
52210;SDS011;38179;52.756;6.906;2024-02-21T07:18:22;36.38;;;20.10;;
52210;SDS011;38179;52.756;6.906;2024-02-21T07:20:50;33.22;;;19.73;;
52210;SDS011;38179;52.756;6.906;2024-02-21T07:23:16;33.78;;;20.02;;
52210;SDS011;38179;52.756;6.906;2024-02-21T07:25:42;33.85;;;20.95;;
52210;SDS011;38179;52.756;6.906;2024-02-21T07:28:07;34.97;;;20.38;;
52210;SDS011;38179;52.756;6.906;2024-02-21T07:30:36;35.17;;;21.52;;
52210;SDS011;38179;52.756;6.906;2024-02-21T07:33:02;36.97;;;22.88;;
52210;SDS011;38179;52.756;6.906;2024-02-21T07:35:28;31.88;;;22.15;;
52210;SDS011;38179;52.756;6.906;2024-02-21T07:37:53;31.83;;;21.70;;
52210;SDS011;38179;52.756;6.906;2024-02-21T07:40:19;33.83;;;21.60;;
52210;SDS011;38179;52.756;6.906;2024-02-21T07:42:45;36.25;;;21.58;;
52210;SDS011;38179;52.756;6.906;2024-02-21T07:45:10;29.05;;;21.77;;
52210;SDS011;38179;52.756;6.906;2024-02-21T07:47:36;30.05;;;22.15;;
52210;SDS011;38179;52.756;6.906;2024-02-21T07:50:03;31.85;;;21.48;;
52210;SDS011;38179;52.756;6.906;2024-02-21T07:52:29;32.60;;;22.95;;
52210;SDS011;38179;52.756;6.906;2024-02-21T07:54:54;34.05;;;22.67;;
52210;SDS011;38179;52.756;6.906;2024-02-21T07:57:20;34.97;;;22.88;;
52210;SDS011;38179;52.756;6.906;2024-02-21T07:59:47;33.20;;;21.05;;
52210;SDS011;38179;52.756;6.906;2024-02-21T08:02:14;29.20;;;21.67;;
52210;SDS011;38179;52.756;6.906;2024-02-21T08:04:40;29.23;;;20.77;;
52210;SDS011;38179;52.756;6.906;2024-02-21T08:07:06;35.33;;;22.67;;
52210;SDS011;38179;52.756;6.906;2024-02-21T08:09:32;32.08;;;22.27;;
52210;SDS011;38179;52.756;6.906;2024-02-21T08:11:58;29.77;;;21.92;;
52210;SDS011;38179;52.756;6.906;2024-02-21T08:14:23;35.03;;;22.10;;
52210;SDS011;38179;52.756;6.906;2024-02-21T08:16:52;30.58;;;21.95;;
52210;SDS011;38179;52.756;6.906;2024-02-21T08:19:20;31.83;;;23.00;;
52210;SDS011;38179;52.756;6.906;2024-02-21T08:21:46;33.00;;;21.15;;
52210;SDS011;38179;52.756;6.906;2024-02-21T08:24:14;29.93;;;21.23;;
52210;SDS011;38179;52.756;6.906;2024-02-21T08:26:40;26.25;;;21.00;;
52210;SDS011;38179;52.756;6.906;2024-02-21T08:29:07;28.67;;;21.77;;
52210;SDS011;38179;52.756;6.906;2024-02-21T08:31:32;33.15;;;22.17;;
52210;SDS011;38179;52.756;6.906;2024-02-21T08:33:59;32.92;;;22.08;;
52210;SDS011;38179;52.756;6.906;2024-02-21T08:36:33;32.10;;;22.27;;
52210;SDS011;38179;52.756;6.906;2024-02-21T08:38:59;32.03;;;23.17;;
52210;SDS011;38179;52.756;6.906;2024-02-21T08:41:26;33.25;;;22.08;;
52210;SDS011;38179;52.756;6.906;2024-02-21T08:43:52;32.53;;;22.55;;
52210;SDS011;38179;52.756;6.906;2024-02-21T08:46:21;31.77;;;21.58;;
52210;SDS011;38179;52.756;6.906;2024-02-21T08:48:51;31.92;;;22.13;;
52210;SDS011;38179;52.756;6.906;2024-02-21T08:51:17;32.90;;;21.08;;
52210;SDS011;38179;52.756;6.906;2024-02-21T08:53:46;33.28;;;23.08;;
52210;SDS011;38179;52.756;6.906;2024-02-21T08:56:13;31.60;;;22.83;;
52210;SDS011;38179;52.756;6.906;2024-02-21T08:58:39;31.00;;;21.90;;
52210;SDS011;38179;52.756;6.906;2024-02-21T09:01:08;29.95;;;21.35;;
52210;SDS011;38179;52.756;6.906;2024-02-21T09:03:38;33.05;;;21.58;;
52210;SDS011;38179;52.756;6.906;2024-02-21T09:06:07;27.50;;;20.83;;
52210;SDS011;38179;52.756;6.906;2024-02-21T09:08:34;31.98;;;23.25;;
52210;SDS011;38179;52.756;6.906;2024-02-21T09:11:00;31.48;;;21.45;;
52210;SDS011;38179;52.756;6.906;2024-02-21T09:13:26;29.45;;;20.80;;
52210;SDS011;38179;52.756;6.906;2024-02-21T09:15:52;33.00;;;20.65;;
52210;SDS011;38179;52.756;6.906;2024-02-21T09:18:18;25.85;;;19.73;;
52210;SDS011;38179;52.756;6.906;2024-02-21T09:20:44;29.75;;;20.60;;
52210;SDS011;38179;52.756;6.906;2024-02-21T09:23:10;29.73;;;20.27;;
52210;SDS011;38179;52.756;6.906;2024-02-21T09:25:37;29.55;;;19.48;;
52210;SDS011;38179;52.756;6.906;2024-02-21T09:28:02;26.10;;;19.08;;
52210;SDS011;38179;52.756;6.906;2024-02-21T09:30:29;32.03;;;19.30;;
52210;SDS011;38179;52.756;6.906;2024-02-21T09:32:55;27.50;;;19.85;;
52210;SDS011;38179;52.756;6.906;2024-02-21T09:35:23;30.70;;;20.05;;
52210;SDS011;38179;52.756;6.906;2024-02-21T09:37:51;28.83;;;18.27;;
52210;SDS011;38179;52.756;6.906;2024-02-21T09:40:17;25.58;;;17.27;;
52210;SDS011;38179;52.756;6.906;2024-02-21T09:42:43;23.90;;;18.08;;
52210;SDS011;38179;52.756;6.906;2024-02-21T09:45:20;29.95;;;17.70;;
52210;SDS011;38179;52.756;6.906;2024-02-21T09:47:51;24.02;;;17.58;;
52210;SDS011;38179;52.756;6.906;2024-02-21T09:50:24;23.92;;;17.30;;
52210;SDS011;38179;52.756;6.906;2024-02-21T09:52:51;29.92;;;19.02;;
52210;SDS011;38179;52.756;6.906;2024-02-21T09:55:19;27.00;;;17.63;;
52210;SDS011;38179;52.756;6.906;2024-02-21T09:57:44;29.33;;;18.83;;
52210;SDS011;38179;52.756;6.906;2024-02-21T10:00:10;29.65;;;18.70;;
52210;SDS011;38179;52.756;6.906;2024-02-21T10:02:39;25.02;;;17.80;;
52210;SDS011;38179;52.756;6.906;2024-02-21T10:05:04;26.80;;;18.13;;
52210;SDS011;38179;52.756;6.906;2024-02-21T10:07:33;25.60;;;18.60;;
52210;SDS011;38179;52.756;6.906;2024-02-21T10:10:00;25.80;;;17.77;;
52210;SDS011;38179;52.756;6.906;2024-02-21T10:12:29;27.92;;;17.70;;
52210;SDS011;38179;52.756;6.906;2024-02-21T10:15:04;25.45;;;16.88;;
52210;SDS011;38179;52.756;6.906;2024-02-21T10:17:34;25.23;;;17.30;;
52210;SDS011;38179;52.756;6.906;2024-02-21T10:20:08;22.92;;;16.23;;
52210;SDS011;38179;52.756;6.906;2024-02-21T10:22:34;25.45;;;17.25;;
52210;SDS011;38179;52.756;6.906;2024-02-21T10:25:13;28.35;;;17.38;;
52210;SDS011;38179;52.756;6.906;2024-02-21T10:27:39;27.30;;;16.60;;
52210;SDS011;38179;52.756;6.906;2024-02-21T10:30:07;26.92;;;16.33;;
52210;SDS011;38179;52.756;6.906;2024-02-21T10:32:48;24.30;;;16.10;;
52210;SDS011;38179;52.756;6.906;2024-02-21T10:35:27;25.55;;;17.02;;
52210;SDS011;38179;52.756;6.906;2024-02-21T10:37:54;22.38;;;16.20;;
52210;SDS011;38179;52.756;6.906;2024-02-21T10:40:25;24.63;;;17.33;;
52210;SDS011;38179;52.756;6.906;2024-02-21T10:42:58;23.20;;;16.50;;
52210;SDS011;38179;52.756;6.906;2024-02-21T10:47:54;23.38;;;15.70;;
52210;SDS011;38179;52.756;6.906;2024-02-21T10:50:22;23.13;;;15.77;;
52210;SDS011;38179;52.756;6.906;2024-02-21T10:53:04;22.52;;;15.68;;
52210;SDS011;38179;52.756;6.906;2024-02-21T10:55:45;22.63;;;15.48;;
52210;SDS011;38179;52.756;6.906;2024-02-21T10:58:19;21.70;;;16.48;;
52210;SDS011;38179;52.756;6.906;2024-02-21T11:00:45;24.50;;;15.98;;
52210;SDS011;38179;52.756;6.906;2024-02-21T11:03:11;22.75;;;14.77;;
52210;SDS011;38179;52.756;6.906;2024-02-21T11:05:38;27.08;;;15.25;;
52210;SDS011;38179;52.756;6.906;2024-02-21T11:08:05;21.52;;;16.80;;
52210;SDS011;38179;52.756;6.906;2024-02-21T11:10:31;24.23;;;16.48;;
52210;SDS011;38179;52.756;6.906;2024-02-21T11:13:07;17.77;;;15.23;;
52210;SDS011;38179;52.756;6.906;2024-02-21T11:15:33;22.30;;;15.25;;
52210;SDS011;38179;52.756;6.906;2024-02-21T11:17:59;20.52;;;15.40;;
52210;SDS011;38179;52.756;6.906;2024-02-21T11:20:36;22.90;;;15.73;;
52210;SDS011;38179;52.756;6.906;2024-02-21T11:23:03;19.73;;;15.25;;
52210;SDS011;38179;52.756;6.906;2024-02-21T11:25:29;18.38;;;15.18;;
52210;SDS011;38179;52.756;6.906;2024-02-21T11:28:01;21.48;;;15.07;;
52210;SDS011;38179;52.756;6.906;2024-02-21T11:30:31;24.95;;;16.25;;
52210;SDS011;38179;52.756;6.906;2024-02-21T11:33:00;21.75;;;14.90;;
52210;SDS011;38179;52.756;6.906;2024-02-21T11:35:31;20.65;;;15.15;;
52210;SDS011;38179;52.756;6.906;2024-02-21T11:38:11;26.27;;;14.82;;
52210;SDS011;38179;52.756;6.906;2024-02-21T11:40:44;23.85;;;14.30;;
52210;SDS011;38179;52.756;6.906;2024-02-21T11:43:11;22.25;;;14.90;;
52210;SDS011;38179;52.756;6.906;2024-02-21T11:45:37;25.55;;;15.88;;
52210;SDS011;38179;52.756;6.906;2024-02-21T11:48:05;25.45;;;14.90;;
52210;SDS011;38179;52.756;6.906;2024-02-21T11:50:32;16.67;;;14.57;;
52210;SDS011;38179;52.756;6.906;2024-02-21T11:52:59;18.10;;;14.38;;
52210;SDS011;38179;52.756;6.906;2024-02-21T11:55:24;22.42;;;15.30;;
52210;SDS011;38179;52.756;6.906;2024-02-21T11:57:51;18.40;;;14.30;;
52210;SDS011;38179;52.756;6.906;2024-02-21T12:00:18;16.80;;;13.75;;
52210;SDS011;38179;52.756;6.906;2024-02-21T12:02:49;16.10;;;13.55;;
52210;SDS011;38179;52.756;6.906;2024-02-21T12:05:15;18.58;;;13.75;;
52210;SDS011;38179;52.756;6.906;2024-02-21T12:07:41;16.65;;;14.10;;
52210;SDS011;38179;52.756;6.906;2024-02-21T12:10:08;20.73;;;13.88;;
52210;SDS011;38179;52.756;6.906;2024-02-21T12:12:38;14.70;;;12.98;;
52210;SDS011;38179;52.756;6.906;2024-02-21T12:15:04;17.42;;;13.32;;
52210;SDS011;38179;52.756;6.906;2024-02-21T12:17:32;15.13;;;13.00;;
52210;SDS011;38179;52.756;6.906;2024-02-21T12:20:02;15.88;;;12.73;;
52210;SDS011;38179;52.756;6.906;2024-02-21T12:22:35;13.82;;;12.32;;
52210;SDS011;38179;52.756;6.906;2024-02-21T12:25:04;17.45;;;12.48;;
52210;SDS011;38179;52.756;6.906;2024-02-21T12:27:40;15.98;;;12.88;;
52210;SDS011;38179;52.756;6.906;2024-02-21T12:30:06;15.55;;;12.15;;
52210;SDS011;38179;52.756;6.906;2024-02-21T12:32:35;13.90;;;12.18;;
52210;SDS011;38179;52.756;6.906;2024-02-21T12:35:01;13.18;;;11.70;;
52210;SDS011;38179;52.756;6.906;2024-02-21T12:37:27;15.88;;;11.05;;
52210;SDS011;38179;52.756;6.906;2024-02-21T12:39:53;16.38;;;11.68;;
52210;SDS011;38179;52.756;6.906;2024-02-21T12:42:19;12.48;;;11.10;;
52210;SDS011;38179;52.756;6.906;2024-02-21T12:44:45;12.93;;;10.90;;
52210;SDS011;38179;52.756;6.906;2024-02-21T12:47:11;12.32;;;10.45;;
52210;SDS011;38179;52.756;6.906;2024-02-21T12:49:37;12.00;;;10.15;;
52210;SDS011;38179;52.756;6.906;2024-02-21T12:52:03;12.27;;;10.23;;
52210;SDS011;38179;52.756;6.906;2024-02-21T12:54:29;12.45;;;9.88;;
52210;SDS011;38179;52.756;6.906;2024-02-21T12:56:56;11.38;;;9.63;;
52210;SDS011;38179;52.756;6.906;2024-02-21T12:59:21;11.38;;;9.95;;
52210;SDS011;38179;52.756;6.906;2024-02-21T13:01:48;10.82;;;9.73;;
52210;SDS011;38179;52.756;6.906;2024-02-21T13:04:13;12.30;;;10.50;;
52210;SDS011;38179;52.756;6.906;2024-02-21T13:06:39;12.10;;;10.30;;
52210;SDS011;38179;52.756;6.906;2024-02-21T13:09:05;14.38;;;10.70;;
52210;SDS011;38179;52.756;6.906;2024-02-21T13:11:34;12.40;;;11.00;;
52210;SDS011;38179;52.756;6.906;2024-02-21T13:14:00;16.88;;;12.13;;
52210;SDS011;38179;52.756;6.906;2024-02-21T13:16:25;12.50;;;11.13;;
52210;SDS011;38179;52.756;6.906;2024-02-21T13:18:54;15.18;;;11.73;;
52210;SDS011;38179;52.756;6.906;2024-02-21T13:21:19;14.85;;;11.40;;
52210;SDS011;38179;52.756;6.906;2024-02-21T13:23:45;12.57;;;10.85;;
52210;SDS011;38179;52.756;6.906;2024-02-21T13:26:11;13.98;;;11.73;;
52210;SDS011;38179;52.756;6.906;2024-02-21T13:28:37;13.93;;;11.15;;
52210;SDS011;38179;52.756;6.906;2024-02-21T13:31:03;13.48;;;12.02;;
52210;SDS011;38179;52.756;6.906;2024-02-21T13:33:29;14.50;;;11.55;;
52210;SDS011;38179;52.756;6.906;2024-02-21T13:35:55;12.90;;;11.60;;
52210;SDS011;38179;52.756;6.906;2024-02-21T13:38:20;13.82;;;11.10;;
52210;SDS011;38179;52.756;6.906;2024-02-21T13:40:46;15.65;;;12.07;;
52210;SDS011;38179;52.756;6.906;2024-02-21T13:43:12;16.17;;;12.77;;
52210;SDS011;38179;52.756;6.906;2024-02-21T13:45:38;15.27;;;12.00;;
52210;SDS011;38179;52.756;6.906;2024-02-21T13:48:06;14.27;;;11.60;;
52210;SDS011;38179;52.756;6.906;2024-02-21T13:50:35;17.13;;;12.25;;
52210;SDS011;38179;52.756;6.906;2024-02-21T13:53:07;18.08;;;13.00;;
52210;SDS011;38179;52.756;6.906;2024-02-21T13:55:34;16.95;;;13.35;;
52210;SDS011;38179;52.756;6.906;2024-02-21T13:58:00;18.58;;;14.48;;
52210;SDS011;38179;52.756;6.906;2024-02-21T14:00:26;15.57;;;12.40;;
52210;SDS011;38179;52.756;6.906;2024-02-21T14:02:52;17.27;;;12.25;;
52210;SDS011;38179;52.756;6.906;2024-02-21T14:05:19;16.48;;;12.60;;
52210;SDS011;38179;52.756;6.906;2024-02-21T14:07:45;18.35;;;12.32;;
52210;SDS011;38179;52.756;6.906;2024-02-21T14:10:11;16.60;;;13.18;;
52210;SDS011;38179;52.756;6.906;2024-02-21T14:12:36;17.23;;;12.50;;
52210;SDS011;38179;52.756;6.906;2024-02-21T14:15:03;17.73;;;13.40;;
52210;SDS011;38179;52.756;6.906;2024-02-21T14:17:30;17.60;;;12.45;;
52210;SDS011;38179;52.756;6.906;2024-02-21T14:19:55;17.50;;;11.98;;
52210;SDS011;38179;52.756;6.906;2024-02-21T14:22:21;16.73;;;12.02;;
52210;SDS011;38179;52.756;6.906;2024-02-21T14:24:47;16.63;;;11.98;;